Etusivu
METAR-TAF:

METAR-TAF

Lentoasemat :

Rosecrans Memorial Airport

Saint Joseph, Missouri, Yhdysvallat

Leveyspiiri: 39-46-05N, Pituuspiiri: 094-54-33W, korkeus merenpinnasta: 251 m

Tämänhetkinen sää

Tämä raportti tehtiin 20 minuuttia sitten, kello 18.53 UTC
Tuuli 3 kn idästä/koillisesta
Lämpötila 28°C
Kosteus 70%
Ilmanpaine 1015 hPa
Näkyvyys: 16.1 km
selkeää

METAR: KSTJ 111853Z 06003KT 10SM CLR 28/22 A2997 RMK AO2 SLP141 T02830222

Aika: 14:13 (19:13 UTC)

Sääennuste

Tämä raportti tehtiin 1 tunti ja 49 minuuttia sitten, kello 17.24 UTC
Ennuste voimassa 11. päivästä klo 18 UTC - 12. päivään klo 18 UTC
Tuuli 6 kn idästä
Näkyvyys: 10 km
Hajanaisia pilviä 20000 ft:n korkeudessa

TAF: KSTJ 111724Z 1118/1218 09006KT P6SM SCT200

Säähavainnot ja -ennusteet yli 4000 lentoasemalta (METAR- ja TAF-raportit).

Käytössä olevat sääasemat on merkitty karttaan keltaisilla ja punaisilla pisteillä.

Aseta hiiri pisteen päälle nähdäksesi sääaseman nimen.

Klikkaa sitten nähdäksesi säähavainnot ja -ennusteet.

Kartan vaihtaminen: klikkaa mustalla rastilla varustettuja vihreitä pisteitä, niin voit zoomata sisään; viivalla varustettua vihreää pistettä, niin voit zoomata ulos tai vihreitä nuolia, niin pääset viereisille kartoille.


METAR-TAF: